Winter Garden, Florida
Current Conditions -  °F | °C
As of 4:53 AM on Saturday 25 Oct 2014 (Local Time) from KORL Reporting Station
Broken Clouds Broken Clouds  
Wind Chill: 65°   Ceiling: 4700
Heat Index: 65°   Visibility: 10mi
Dew Point: 54°   Wind: 8mph
Humidity: 68%   Direction: 350°N
Pressure: 29.96"   Gusts: NA
Location:  28.57°N, 81.59°W
Report Text: KORL 250853Z AUTO 35007KT 10SM BKN047 18/12 A2996 RMK AO2 SLP147 T01830122 55002
Loading
Personal Weather Stations






























Interactive Weather Map
Tropical Storm Tracking
New forecast layout! Learn more

10-Day Weather Forecast

Advertisements
Track Severe Weather on mobile